Time;durP1;ratioP1;P1;durP2;ratioP2;P2;SDS_P1;SDS_P2;PMS_P1;PMS_P2;Temp;Humidity;BMP_temperature;BMP_pressure;BME280_temperature;BME280_humidity;BME280_pressure;Samples;Min_cycle;Max_cycle;Signal;HPM_P1;HPM_P2
2022/03/07 00:02:03;;;;;;;4.00;3.20;;;2.90;63.30;;;;;;5041887;28;20087;-70
2022/03/07 00:04:29;;;;;;;4.50;3.38;;;2.90;63.40;;;;;;5046619;28;20029;-70
2022/03/07 00:06:54;;;;;;;5.28;3.50;;;2.90;63.40;;;;;;5044699;28;20128;-70
2022/03/07 00:09:20;;;;;;;5.32;3.53;;;2.80;63.40;;;;;;5042289;28;20025;-71
2022/03/07 00:11:46;;;;;;;4.30;3.22;;;2.80;63.40;;;;;;5042410;28;20030;-71
2022/03/07 00:14:12;;;;;;;4.20;3.33;;;2.80;63.40;;;;;;5045508;28;20067;-71
2022/03/07 00:16:37;;;;;;;4.32;3.20;;;2.80;63.50;;;;;;5042368;28;20055;-71
2022/03/07 00:19:03;;;;;;;3.45;3.00;;;2.80;63.50;;;;;;5043529;28;20060;-71
2022/03/07 00:21:29;;;;;;;5.78;3.40;;;2.80;63.50;;;;;;5046333;28;20091;-71
2022/03/07 00:23:54;;;;;;;4.20;3.28;;;2.80;63.60;;;;;;5043506;28;20086;-70
2022/03/07 00:26:20;;;;;;;3.83;3.03;;;2.80;63.70;;;;;;5042778;28;20557;-71
2022/03/07 00:28:47;;;;;;;4.10;3.10;;;2.80;63.60;;;;;;5044066;28;20026;-71
2022/03/07 00:31:13;;;;;;;4.18;3.20;;;2.80;63.60;;;;;;5046033;28;20040;-71
2022/03/07 00:33:40;;;;;;;4.55;3.50;;;2.80;63.70;;;;;;5043157;28;20031;-70
2022/03/07 00:36:06;;;;;;;3.72;3.00;;;2.80;63.70;;;;;;5045632;28;20128;-70
2022/03/07 00:38:32;;;;;;;3.65;2.83;;;2.80;63.70;;;;;;5044001;28;20543;-70
2022/03/07 00:40:58;;;;;;;4.63;3.38;;;2.70;63.70;;;;;;5046820;28;20024;-70
2022/03/07 00:43:24;;;;;;;4.68;3.20;;;2.70;63.90;;;;;;5045569;28;20099;-70
2022/03/07 00:45:50;;;;;;;4.93;3.10;;;2.70;64.00;;;;;;5043846;28;20548;-71
2022/03/07 00:48:16;;;;;;;4.28;3.33;;;2.70;63.90;;;;;;5042341;28;20038;-70
2022/03/07 00:50:49;;;;;;;4.30;3.35;;;2.70;63.80;;;;;;5046147;28;20049;-71
2022/03/07 00:53:18;;;;;;;4.43;3.60;;;2.80;63.80;;;;;;5038834;28;20108;-70
2022/03/07 00:55:44;;;;;;;3.85;3.28;;;2.80;63.80;;;;;;5041790;28;20502;-71
2022/03/07 00:58:10;;;;;;;4.47;3.60;;;2.80;63.80;;;;;;5043516;28;20048;-71
2022/03/07 01:00:37;;;;;;;5.68;3.53;;;2.80;63.70;;;;;;5046328;28;20117;-72
2022/03/07 01:03:04;;;;;;;5.00;3.70;;;2.80;63.70;;;;;;5042303;28;20025;-72
2022/03/07 01:05:30;;;;;;;6.57;4.10;;;2.80;63.60;;;;;;5044306;28;20128;-71
2022/03/07 01:07:55;;;;;;;4.72;3.70;;;2.80;63.60;;;;;;5043934;28;20427;-72
2022/03/07 01:10:21;;;;;;;3.63;3.20;;;2.80;63.50;;;;;;5042258;28;20025;-71
2022/03/07 01:12:47;;;;;;;6.30;3.80;;;2.80;63.50;;;;;;5044797;28;20115;-71
2022/03/07 01:15:14;;;;;;;5.50;3.90;;;2.80;63.50;;;;;;5043844;28;20053;-72
2022/03/07 01:17:39;;;;;;;6.22;3.80;;;2.80;63.50;;;;;;5043902;28;20024;-72
2022/03/07 01:20:06;;;;;;;5.80;4.38;;;2.80;63.60;;;;;;5042550;28;20025;-71
2022/03/07 01:22:32;;;;;;;5.32;3.72;;;2.80;63.60;;;;;;5040061;28;20033;-72
2022/03/07 01:24:58;;;;;;;4.97;3.50;;;2.80;63.60;;;;;;5040817;28;20071;-71
2022/03/07 01:27:24;;;;;;;4.30;3.70;;;2.70;63.50;;;;;;5045860;28;20032;-70
2022/03/07 01:29:49;;;;;;;5.70;3.80;;;2.70;63.50;;;;;;5038028;28;20136;-70
2022/03/07 01:32:15;;;;;;;5.38;3.47;;;2.70;63.50;;;;;;5043834;28;20025;-70
2022/03/07 01:34:40;;;;;;;5.03;3.70;;;2.70;63.60;;;;;;5042960;28;20132;-70
2022/03/07 01:37:06;;;;;;;4.03;3.40;;;2.70;63.60;;;;;;5040953;28;20051;-71
2022/03/07 01:39:31;;;;;;;5.78;3.92;;;2.70;63.60;;;;;;5042379;28;20475;-71
2022/03/07 01:41:57;;;;;;;4.97;3.35;;;2.70;63.70;;;;;;5044234;28;20576;-71
2022/03/07 01:44:27;;;;;;;5.93;3.78;;;2.70;63.70;;;;;;5039940;28;20040;-71
2022/03/07 01:46:53;;;;;;;6.13;3.55;;;2.60;63.70;;;;;;5038993;28;20360;-71
2022/03/07 01:49:19;;;;;;;5.70;4.22;;;2.60;63.70;;;;;;5044787;28;20022;-71
2022/03/07 01:51:46;;;;;;;5.60;4.10;;;2.60;63.70;;;;;;5042377;28;20021;-70
2022/03/07 01:54:17;;;;;;;5.28;3.90;;;2.70;63.80;;;;;;5044946;28;20017;-71
2022/03/07 01:56:45;;;;;;;4.57;3.67;;;2.70;63.70;;;;;;5041047;28;20025;-70
2022/03/07 01:59:15;;;;;;;5.55;3.63;;;2.70;63.70;;;;;;5036900;28;20427;-70
2022/03/07 02:01:41;;;;;;;5.45;4.00;;;2.70;63.70;;;;;;5044862;28;20056;-71
2022/03/07 02:04:07;;;;;;;5.35;3.80;;;2.60;63.70;;;;;;5044851;28;20017;-71
2022/03/07 02:06:33;;;;;;;5.55;4.10;;;2.60;63.70;;;;;;5047199;28;20060;-71
2022/03/07 02:08:58;;;;;;;5.20;3.92;;;2.50;63.70;;;;;;5046930;28;20064;-71
2022/03/07 02:11:25;;;;;;;5.22;4.00;;;2.50;63.70;;;;;;5043978;28;20021;-70
2022/03/07 02:13:51;;;;;;;4.65;3.22;;;2.50;63.90;;;;;;5039825;28;20382;-70
2022/03/07 02:16:19;;;;;;;5.45;3.90;;;2.40;63.90;;;;;;5040493;28;20811;-71
2022/03/07 02:18:46;;;;;;;5.22;4.25;;;2.40;64.00;;;;;;5041709;28;20024;-70
2022/03/07 02:21:16;;;;;;;5.00;3.70;;;2.30;64.10;;;;;;5044181;28;20071;-70
2022/03/07 02:23:43;;;;;;;4.70;3.60;;;2.30;64.30;;;;;;5038117;28;20028;-71
2022/03/07 02:26:15;;;;;;;5.43;4.07;;;2.30;64.30;;;;;;5042421;28;20107;-70
2022/03/07 02:28:42;;;;;;;5.63;3.80;;;2.20;64.60;;;;;;5039469;28;20466;-70
2022/03/07 02:31:08;;;;;;;5.22;3.72;;;2.20;64.50;;;;;;5034590;28;20357;-70
2022/03/07 02:33:34;;;;;;;5.00;4.03;;;2.10;64.40;;;;;;5043068;28;20033;-71
2022/03/07 02:36:01;;;;;;;5.03;4.10;;;2.10;64.60;;;;;;5046865;28;20402;-71
2022/03/07 02:38:26;;;;;;;4.43;3.95;;;2.10;64.60;;;;;;5048664;28;20071;-71
2022/03/07 02:40:52;;;;;;;5.60;4.20;;;2.10;64.70;;;;;;5043271;28;20025;-72
2022/03/07 02:43:18;;;;;;;5.63;3.95;;;2.10;64.80;;;;;;5037515;28;20036;-71
2022/03/07 02:45:45;;;;;;;4.45;3.85;;;2.10;64.80;;;;;;5044193;28;20104;-71
2022/03/07 02:48:10;;;;;;;6.95;4.20;;;2.10;64.80;;;;;;5037331;28;20375;-71
2022/03/07 02:50:36;;;;;;;5.60;4.07;;;2.10;64.90;;;;;;5038676;28;20022;-71
2022/03/07 02:53:02;;;;;;;5.95;4.30;;;2.10;65.00;;;;;;5039291;28;20092;-72
2022/03/07 02:55:29;;;;;;;5.80;4.28;;;2.00;65.00;;;;;;5048051;28;20108;-72
2022/03/07 02:57:54;;;;;;;7.32;4.75;;;2.00;65.10;;;;;;5039859;28;20108;-70
2022/03/07 03:00:20;;;;;;;6.03;4.18;;;2.00;65.20;;;;;;5048769;28;20401;-70
2022/03/07 03:02:45;;;;;;;6.00;4.35;;;2.00;65.20;;;;;;5041610;28;20602;-70
2022/03/07 03:05:12;;;;;;;6.32;4.38;;;2.00;65.30;;;;;;5048146;28;20022;-70
2022/03/07 03:07:38;;;;;;;5.95;4.30;;;2.00;65.40;;;;;;5061787;28;20112;-70
2022/03/07 03:10:05;;;;;;;5.00;4.00;;;2.00;65.40;;;;;;5047991;28;20124;-70
2022/03/07 03:12:31;;;;;;;6.55;4.15;;;2.00;65.50;;;;;;5045939;28;20429;-70
2022/03/07 03:14:56;;;;;;;6.35;4.40;;;2.00;65.50;;;;;;5045567;28;20032;-71
2022/03/07 03:17:22;;;;;;;6.00;4.07;;;2.00;65.50;;;;;;5051300;28;20383;-70
2022/03/07 03:19:48;;;;;;;5.97;4.20;;;2.00;65.50;;;;;;5044959;28;20479;-70
2022/03/07 03:22:13;;;;;;;5.35;4.30;;;2.00;65.50;;;;;;5050205;28;20389;-71
2022/03/07 03:24:39;;;;;;;5.47;4.55;;;2.00;65.50;;;;;;5045249;28;20017;-71
2022/03/07 03:27:05;;;;;;;7.88;4.53;;;2.00;65.60;;;;;;5045211;28;20486;-70
2022/03/07 03:29:31;;;;;;;6.68;4.55;;;2.00;65.60;;;;;;5043787;28;20056;-71
2022/03/07 03:31:57;;;;;;;6.65;4.57;;;2.00;65.60;;;;;;5047585;28;20506;-71
2022/03/07 03:34:22;;;;;;;7.32;4.35;;;2.00;65.60;;;;;;5046580;28;20075;-71
2022/03/07 03:36:48;;;;;;;7.75;4.70;;;2.00;65.60;;;;;;5050230;28;20021;-71
2022/03/07 03:39:14;;;;;;;6.75;4.65;;;2.00;65.50;;;;;;5043180;28;20033;-71
2022/03/07 03:41:40;;;;;;;5.97;4.50;;;2.00;65.60;;;;;;5049039;28;20033;-71
2022/03/07 03:44:06;;;;;;;6.57;4.97;;;2.00;65.60;;;;;;5039771;28;20476;-70
2022/03/07 03:46:31;;;;;;;7.75;4.97;;;2.00;65.70;;;;;;5043015;28;20040;-71
2022/03/07 03:48:57;;;;;;;7.40;5.10;;;2.00;65.60;;;;;;5038879;28;20163;-70
2022/03/07 03:51:23;;;;;;;5.78;4.40;;;2.00;65.70;;;;;;5051568;28;20632;-71
2022/03/07 03:53:48;;;;;;;6.90;5.07;;;2.00;65.70;;;;;;5046467;28;20052;-71
2022/03/07 03:56:14;;;;;;;6.95;5.20;;;2.00;65.70;;;;;;5047399;28;20138;-70
2022/03/07 03:58:39;;;;;;;7.47;5.10;;;2.00;65.80;;;;;;5051278;28;20052;-72
2022/03/07 04:01:05;;;;;;;6.00;4.65;;;2.00;65.80;;;;;;5051033;28;20375;-70
2022/03/07 04:03:30;;;;;;;7.00;5.57;;;2.00;65.80;;;;;;5045796;28;20025;-70
2022/03/07 04:05:56;;;;;;;7.85;5.07;;;2.00;65.80;;;;;;5048910;28;20479;-71
2022/03/07 04:08:25;;;;;;;6.90;5.10;;;2.00;65.80;;;;;;5043925;28;20037;-71
2022/03/07 04:10:50;;;;;;;6.68;4.95;;;1.90;65.80;;;;;;5041484;28;20420;-70
2022/03/07 04:13:16;;;;;;;7.40;5.25;;;2.00;65.80;;;;;;5039914;28;20160;-70
2022/03/07 04:15:41;;;;;;;7.63;5.47;;;1.90;65.80;;;;;;5047656;28;20043;-72
2022/03/07 04:18:07;;;;;;;6.97;5.10;;;1.90;65.90;;;;;;5049867;28;20082;-72
2022/03/07 04:20:33;;;;;;;7.15;5.63;;;1.90;65.90;;;;;;5042854;28;20069;-70
2022/03/07 04:23:00;;;;;;;6.43;4.15;;;1.90;65.90;;;;;;5047479;28;20025;-71
2022/03/07 04:25:26;;;;;;;6.53;5.07;;;1.90;65.90;;;;;;5042403;28;20351;-71
2022/03/07 04:27:52;;;;;;;8.00;5.20;;;1.90;66.10;;;;;;5050005;28;20032;-71
2022/03/07 04:30:17;;;;;;;6.70;4.60;;;1.80;66.10;;;;;;5047614;28;20035;-71
2022/03/07 04:32:43;;;;;;;6.10;4.80;;;1.80;66.20;;;;;;5042392;28;20355;-69
2022/03/07 04:35:10;;;;;;;7.68;6.25;;;1.80;66.20;;;;;;5044232;28;20029;-72
2022/03/07 04:37:39;;;;;;;8.20;5.65;;;1.80;66.50;;;;;;5051390;28;20029;-70
2022/03/07 04:40:06;;;;;;;8.32;6.00;;;1.80;66.60;;;;;;5044446;28;20139;-70
2022/03/07 04:42:32;;;;;;;6.82;5.28;;;1.80;66.50;;;;;;5049764;28;20040;-70
2022/03/07 04:44:58;;;;;;;7.88;5.47;;;1.80;66.50;;;;;;5049115;28;20414;-71
2022/03/07 04:47:23;;;;;;;7.60;5.10;;;1.80;66.50;;;;;;5043079;28;20021;-70
2022/03/07 04:49:49;;;;;;;8.70;5.68;;;1.80;66.40;;;;;;5046274;28;20033;-71
2022/03/07 04:52:14;;;;;;;7.28;5.05;;;1.80;66.40;;;;;;5046920;28;20156;-70
2022/03/07 04:54:40;;;;;;;6.95;5.03;;;1.80;66.20;;;;;;5040652;28;20472;-70
2022/03/07 04:57:06;;;;;;;8.02;5.50;;;1.80;66.10;;;;;;5050275;28;20017;-70
2022/03/07 04:59:31;;;;;;;6.85;5.43;;;1.80;66.30;;;;;;5048505;28;20028;-70
2022/03/07 05:01:57;;;;;;;7.90;5.80;;;1.80;66.50;;;;;;5046374;28;20531;-71
2022/03/07 05:04:23;;;;;;;7.97;5.70;;;1.70;66.50;;;;;;5038480;28;20048;-71
2022/03/07 05:06:48;;;;;;;7.35;5.38;;;1.70;66.60;;;;;;5042439;28;20116;-70
2022/03/07 05:09:14;;;;;;;9.20;5.47;;;1.70;66.60;;;;;;5049198;28;20036;-71
2022/03/07 05:11:39;;;;;;;8.07;5.88;;;1.70;66.60;;;;;;5050255;28;20056;-71
2022/03/07 05:14:05;;;;;;;7.55;5.03;;;1.70;66.60;;;;;;5047371;28;20103;-70
2022/03/07 05:16:30;;;;;;;7.38;4.90;;;1.70;66.60;;;;;;5044540;28;20033;-70
2022/03/07 05:18:56;;;;;;;6.90;5.10;;;1.70;66.60;;;;;;5049148;28;20132;-70
2022/03/07 05:21:21;;;;;;;8.10;5.22;;;1.70;66.60;;;;;;5050301;28;20041;-71
2022/03/07 05:23:47;;;;;;;7.82;5.50;;;1.70;66.60;;;;;;5049102;28;20043;-70
2022/03/07 05:26:12;;;;;;;5.93;4.88;;;1.70;66.70;;;;;;5049662;28;20021;-71
2022/03/07 05:28:38;;;;;;;6.07;4.63;;;1.70;66.80;;;;;;5047083;28;20495;-71
2022/03/07 05:31:04;;;;;;;7.82;5.97;;;1.60;66.80;;;;;;5040254;28;20029;-70
2022/03/07 05:33:29;;;;;;;6.50;5.40;;;1.70;66.90;;;;;;5048928;28;20028;-70
2022/03/07 05:35:55;;;;;;;7.85;5.38;;;1.70;66.90;;;;;;5045909;28;20029;-70
2022/03/07 05:38:21;;;;;;;7.75;5.30;;;1.70;66.90;;;;;;5045248;28;20479;-70
2022/03/07 05:40:46;;;;;;;7.85;6.10;;;1.70;66.80;;;;;;5042572;28;20090;-71
2022/03/07 05:43:13;;;;;;;7.57;5.72;;;1.70;66.70;;;;;;5040153;28;20029;-70
2022/03/07 05:45:38;;;;;;;7.57;5.47;;;1.70;66.60;;;;;;5043747;28;20025;-70
2022/03/07 05:48:04;;;;;;;6.20;5.43;;;1.70;66.50;;;;;;5045416;28;20096;-70
2022/03/07 05:50:30;;;;;;;8.80;5.78;;;1.70;66.50;;;;;;5037691;28;20033;-69
2022/03/07 05:52:55;;;;;;;7.30;5.82;;;1.70;66.50;;;;;;5048769;28;20039;-70
2022/03/07 05:55:21;;;;;;;8.55;5.10;;;1.60;66.50;;;;;;5045024;28;20027;-70
2022/03/07 05:57:46;;;;;;;6.78;5.22;;;1.50;66.50;;;;;;5049989;28;20029;-70
2022/03/07 06:00:12;;;;;;;7.28;5.13;;;1.50;66.60;;;;;;5047608;28;20044;-71
2022/03/07 06:02:39;;;;;;;6.75;5.55;;;1.40;66.60;;;;;;5041071;28;20068;-71
2022/03/07 06:05:05;;;;;;;7.35;5.28;;;1.30;66.60;;;;;;5039820;28;20380;-71
2022/03/07 06:07:31;;;;;;;7.90;5.60;;;1.30;66.70;;;;;;5049152;28;20036;-70
2022/03/07 06:09:56;;;;;;;7.38;5.50;;;1.30;66.80;;;;;;5046695;28;20036;-69
2022/03/07 06:12:22;;;;;;;7.45;5.50;;;1.20;66.80;;;;;;5042246;28;20036;-69
2022/03/07 06:14:47;;;;;;;7.30;5.43;;;1.30;67.00;;;;;;5044802;28;20060;-70
2022/03/07 06:17:13;;;;;;;7.15;5.60;;;1.30;67.00;;;;;;5047253;28;20049;-70
2022/03/07 06:19:39;;;;;;;7.18;5.55;;;1.30;67.00;;;;;;5040314;28;20066;-71
2022/03/07 06:22:04;;;;;;;6.15;5.15;;;1.30;66.90;;;;;;5043859;28;20107;-70
2022/03/07 06:24:30;;;;;;;7.65;5.30;;;1.40;66.90;;;;;;5040595;28;20455;-70
2022/03/07 06:26:58;;;;;;;7.53;5.60;;;1.40;66.90;;;;;;5048193;28;20025;-70
2022/03/07 06:29:24;;;;;;;7.53;5.07;;;1.50;66.90;;;;;;5045254;28;20100;-71
2022/03/07 06:31:50;;;;;;;7.03;5.47;;;1.50;66.80;;;;;;5041587;28;20504;-70
2022/03/07 06:34:15;;;;;;;7.30;5.60;;;1.60;66.70;;;;;;5042379;28;20200;-70
2022/03/07 06:36:41;;;;;;;7.18;5.43;;;1.60;66.60;;;;;;5044276;28;20359;-71
2022/03/07 06:39:06;;;;;;;7.32;5.10;;;1.60;66.50;;;;;;5045925;28;20068;-70
2022/03/07 06:41:32;;;;;;;8.63;5.13;;;1.70;66.50;;;;;;5044716;28;20090;-71
2022/03/07 06:43:59;;;;;;;7.22;5.22;;;1.70;66.40;;;;;;5041328;28;20063;-71
2022/03/07 06:46:25;;;;;;;6.20;4.47;;;1.70;66.40;;;;;;5046660;28;20491;-70
2022/03/07 06:48:50;;;;;;;7.55;5.43;;;1.70;66.30;;;;;;5042830;28;20021;-70
2022/03/07 06:51:18;;;;;;;7.93;5.45;;;1.70;66.20;;;;;;5052234;28;20033;-70
2022/03/07 06:53:44;;;;;;;6.88;5.57;;;1.80;66.20;;;;;;5054559;28;20356;-71
2022/03/07 06:56:10;;;;;;;6.47;5.30;;;1.80;66.20;;;;;;5048064;28;20056;-70
2022/03/07 06:58:35;;;;;;;6.80;5.35;;;1.80;66.20;;;;;;5050093;28;20017;-71
2022/03/07 07:01:01;;;;;;;8.93;5.43;;;1.80;66.20;;;;;;5053553;28;20544;-70
2022/03/07 07:03:26;;;;;;;7.95;5.85;;;1.80;66.20;;;;;;5051035;28;20483;-70
2022/03/07 07:05:52;;;;;;;7.97;5.75;;;1.80;66.20;;;;;;5047427;28;20507;-70
2022/03/07 07:08:18;;;;;;;8.00;5.80;;;1.80;66.20;;;;;;5051706;28;20025;-70
2022/03/07 07:10:43;;;;;;;8.65;6.32;;;1.80;66.20;;;;;;5050160;28;20108;-69
2022/03/07 07:13:14;;;;;;;9.32;6.25;;;1.80;66.20;;;;;;5047047;28;20032;-69
2022/03/07 07:15:40;;;;;;;9.10;5.95;;;1.80;66.10;;;;;;5045825;28;20029;-69
2022/03/07 07:18:06;;;;;;;11.32;6.85;;;1.80;66.20;;;;;;5047583;28;20112;-70
2022/03/07 07:20:33;;;;;;;10.55;6.93;;;1.90;66.20;;;;;;5055426;28;20112;-70
2022/03/07 07:22:59;;;;;;;7.75;6.03;;;1.90;66.20;;;;;;5046097;28;20542;-70
2022/03/07 07:25:24;;;;;;;10.50;6.47;;;2.00;66.10;;;;;;5045181;28;20120;-70
2022/03/07 07:27:50;;;;;;;8.65;6.05;;;2.10;66.10;;;;;;5040975;28;20164;-70
2022/03/07 07:30:15;;;;;;;7.03;5.72;;;2.10;66.00;;;;;;5049407;28;20519;-70
2022/03/07 07:32:41;;;;;;;7.93;5.70;;;2.10;66.00;;;;;;5043438;28;20028;-72
2022/03/07 07:35:10;;;;;;;8.00;6.00;;;2.20;66.00;;;;;;5040952;28;20057;-72
2022/03/07 07:37:36;;;;;;;7.10;4.97;;;2.30;65.90;;;;;;5050312;28;20492;-72
2022/03/07 07:40:05;;;;;;;8.48;6.43;;;2.40;65.80;;;;;;5048563;28;20029;-71
2022/03/07 07:42:31;;;;;;;9.25;6.63;;;2.40;65.60;;;;;;5045831;28;20029;-71
2022/03/07 07:44:56;;;;;;;9.63;5.97;;;2.50;65.70;;;;;;5049067;28;20044;-70
2022/03/07 07:47:22;;;;;;;8.02;6.03;;;2.60;66.20;;;;;;5048689;28;20068;-71
2022/03/07 07:49:47;;;;;;;7.70;6.32;;;2.60;65.50;;;;;;5047568;28;20028;-70
2022/03/07 07:52:13;;;;;;;8.05;5.90;;;2.70;65.60;;;;;;5052606;28;20379;-78
2022/03/07 07:54:38;;;;;;;9.13;5.90;;;2.70;65.70;;;;;;5051084;28;20681;-76
2022/03/07 07:57:07;;;;;;;7.47;6.07;;;2.80;65.70;;;;;;5049604;28;20017;-76
2022/03/07 07:59:33;;;;;;;6.28;5.07;;;2.90;65.70;;;;;;5042728;28;20036;-75
2022/03/07 08:01:58;;;;;;;7.88;5.63;;;3.00;65.60;;;;;;5044375;28;20037;-76
2022/03/07 08:04:24;;;;;;;9.50;5.50;;;3.10;65.60;;;;;;5039699;28;20540;-75
2022/03/07 08:06:50;;;;;;;7.28;5.63;;;3.20;65.50;;;;;;5045652;28;20032;-75
2022/03/07 08:09:15;;;;;;;7.20;5.30;;;3.30;65.40;;;;;;5044906;28;20489;-75
2022/03/07 08:11:41;;;;;;;7.18;5.60;;;3.40;65.20;;;;;;5046998;28;20033;-76
2022/03/07 08:14:07;;;;;;;9.55;6.30;;;3.50;65.20;;;;;;5051522;28;20147;-76
2022/03/07 08:16:32;;;;;;;6.60;5.30;;;3.50;65.10;;;;;;5049358;28;20035;-76
2022/03/07 08:18:58;;;;;;;9.55;6.25;;;3.60;65.00;;;;;;5047169;28;20052;-76
2022/03/07 08:21:25;;;;;;;7.85;5.95;;;3.70;65.00;;;;;;5043620;28;20116;-76
2022/03/07 08:23:53;;;;;;;6.88;5.70;;;3.80;64.80;;;;;;5039112;28;20416;-75
2022/03/07 08:26:18;;;;;;;6.25;4.95;;;3.90;64.60;;;;;;5036343;28;20121;-75
2022/03/07 08:28:44;;;;;;;8.55;6.55;;;4.00;64.50;;;;;;5045775;28;20107;-75
2022/03/07 08:31:09;;;;;;;7.90;6.10;;;4.10;64.40;;;;;;5038667;28;20029;-76
2022/03/07 08:33:35;;;;;;;9.57;7.30;;;4.20;64.10;;;;;;5041494;28;20023;-76
2022/03/07 08:36:01;;;;;;;10.25;7.32;;;4.30;64.20;;;;;;5045456;28;20028;-76
2022/03/07 08:38:27;;;;;;;8.05;6.20;;;4.30;62.40;;;;;;5046053;28;20021;-75
2022/03/07 08:40:53;;;;;;;7.93;6.18;;;4.30;62.20;;;;;;5038525;28;20067;-76
2022/03/07 08:43:19;;;;;;;7.45;5.50;;;4.40;62.20;;;;;;5044058;28;20025;-75
2022/03/07 08:45:45;;;;;;;10.07;7.20;;;4.60;62.20;;;;;;5041679;28;20596;-74
2022/03/07 08:48:10;;;;;;;8.00;6.43;;;4.70;61.10;;;;;;5037698;28;20048;-75
2022/03/07 08:50:36;;;;;;;6.38;5.22;;;4.70;60.60;;;;;;5042368;28;20033;-75
2022/03/07 08:53:01;;;;;;;8.25;5.85;;;4.70;60.00;;;;;;5043078;28;20402;-76
2022/03/07 08:55:27;;;;;;;7.35;5.93;;;4.80;59.10;;;;;;5041395;28;20463;-76
2022/03/07 08:57:53;;;;;;;6.50;5.35;;;4.80;59.00;;;;;;5040487;28;20450;-76
2022/03/07 09:00:18;;;;;;;8.23;5.70;;;4.80;58.40;;;;;;5045508;28;20032;-76
2022/03/07 09:02:44;;;;;;;6.22;5.22;;;4.90;57.40;;;;;;5047355;28;20033;-75
2022/03/07 09:05:09;;;;;;;8.45;5.70;;;4.90;56.50;;;;;;5048290;28;20480;-76
2022/03/07 09:07:35;;;;;;;8.35;5.47;;;4.80;55.80;;;;;;5049016;28;20025;-76
2022/03/07 09:10:01;;;;;;;6.50;5.20;;;4.80;55.80;;;;;;5041419;28;20021;-76
2022/03/07 09:12:29;;;;;;;4.97;3.95;;;4.80;56.40;;;;;;5045554;28;20100;-76
2022/03/07 09:14:59;;;;;;;6.70;5.03;;;5.00;57.00;;;;;;5045502;28;20025;-75
2022/03/07 09:17:26;;;;;;;6.82;4.65;;;5.10;56.50;;;;;;5039840;28;20521;-75
2022/03/07 09:19:53;;;;;;;8.02;5.05;;;5.10;55.10;;;;;;5047500;28;20044;-76
2022/03/07 09:22:18;;;;;;;5.47;4.65;;;5.10;55.00;;;;;;5044876;28;20052;-76
2022/03/07 09:24:45;;;;;;;6.32;4.40;;;5.10;54.70;;;;;;5046795;28;20013;-76
2022/03/07 09:27:10;;;;;;;6.75;4.72;;;5.20;54.90;;;;;;5033035;28;20045;-76
2022/03/07 09:29:36;;;;;;;6.05;4.70;;;5.20;54.60;;;;;;5041543;28;20064;-76
2022/03/07 09:32:05;;;;;;;5.28;4.18;;;5.20;54.80;;;;;;5039995;28;20079;-77
2022/03/07 09:34:31;;;;;;;6.07;4.95;;;5.20;54.50;;;;;;5042108;28;20033;-76
2022/03/07 09:36:57;;;;;;;6.38;5.28;;;5.30;54.30;;;;;;5044481;28;20388;-75
2022/03/07 09:39:23;;;;;;;6.25;5.47;;;5.20;53.70;;;;;;5035982;28;20036;-75
2022/03/07 09:41:48;;;;;;;6.00;4.65;;;5.10;53.40;;;;;;5040410;28;20041;-77
2022/03/07 09:44:14;;;;;;;6.40;4.47;;;5.10;53.60;;;;;;5043059;28;20369;-75
2022/03/07 09:46:39;;;;;;;5.50;4.28;;;5.20;54.00;;;;;;5045952;28;20037;-75
2022/03/07 09:49:05;;;;;;;6.05;4.60;;;5.30;54.20;;;;;;5042290;28;20479;-75
2022/03/07 09:51:31;;;;;;;5.28;4.22;;;5.40;53.60;;;;;;5038428;28;20387;-74
2022/03/07 09:53:56;;;;;;;5.30;4.68;;;5.40;53.20;;;;;;5045360;28;20108;-77
2022/03/07 09:56:22;;;;;;;6.32;4.57;;;5.40;53.10;;;;;;5039994;28;20039;-75
2022/03/07 09:58:47;;;;;;;6.68;4.30;;;5.40;52.80;;;;;;5045496;28;20036;-75
2022/03/07 10:01:19;;;;;;;5.93;4.38;;;5.30;52.60;;;;;;5035125;28;20041;-76
2022/03/07 10:03:45;;;;;;;6.00;4.63;;;5.30;52.10;;;;;;5040262;28;20040;-75
2022/03/07 10:06:16;;;;;;;5.05;4.10;;;5.30;52.70;;;;;;5040960;28;20022;-75
2022/03/07 10:08:56;;;;;;;5.25;4.22;;;5.30;52.50;;;;;;5042865;28;20029;-75
2022/03/07 10:11:22;;;;;;;4.85;4.35;;;5.30;52.70;;;;;;5036533;28;20044;-76
2022/03/07 10:14:00;;;;;;;6.03;4.60;;;5.40;52.80;;;;;;5036794;28;20013;-75
2022/03/07 10:16:39;;;;;;;8.13;5.45;;;5.40;52.90;;;;;;5039150;28;21252;-75
2022/03/07 10:19:13;;;;;;;7.00;5.03;;;5.50;53.00;;;;;;5037672;28;20055;-75
2022/03/07 10:21:50;;;;;;;7.60;5.20;;;5.50;52.90;;;;;;5037923;28;20049;-74
2022/03/07 10:24:18;;;;;;;5.43;4.18;;;5.40;52.90;;;;;;5035272;28;20033;-76
2022/03/07 10:26:44;;;;;;;6.82;4.80;;;5.50;53.30;;;;;;5038977;28;20037;-74
2022/03/07 10:29:10;;;;;;;6.43;5.18;;;5.60;53.40;;;;;;5035515;28;20152;-75
2022/03/07 10:31:37;;;;;;;6.13;5.22;;;5.70;53.70;;;;;;5038567;28;20028;-75
2022/03/07 10:34:08;;;;;;;6.53;5.03;;;5.70;53.40;;;;;;5038377;28;20107;-75
2022/03/07 10:36:39;;;;;;;6.78;4.97;;;5.70;52.60;;;;;;5039367;28;20076;-75
2022/03/07 10:39:08;;;;;;;6.85;5.45;;;5.70;52.90;;;;;;5043907;28;20021;-75
2022/03/07 10:41:46;;;;;;;5.93;5.00;;;5.70;52.90;;;;;;5039611;28;20209;-75
2022/03/07 10:44:37;;;;;;;9.02;5.93;;;5.80;53.00;;;;;;5037476;28;20539;-75
2022/03/07 10:47:17;;;;;;;6.65;5.47;;;5.70;53.20;;;;;;5042453;28;20072;-75
2022/03/07 10:49:54;;;;;;;7.13;5.63;;;5.80;53.70;;;;;;5042773;28;20053;-75
2022/03/07 10:52:21;;;;;;;8.25;6.32;;;5.90;53.80;;;;;;5038413;28;20076;-75
2022/03/07 10:54:49;;;;;;;7.35;5.15;;;5.90;53.80;;;;;;5042215;28;20488;-75
2022/03/07 10:57:16;;;;;;;6.25;4.90;;;6.00;54.10;;;;;;5044915;28;20724;-75
2022/03/07 10:59:42;;;;;;;6.82;5.22;;;6.00;54.00;;;;;;5040572;28;20029;-76
2022/03/07 11:02:14;;;;;;;7.32;5.72;;;6.10;54.10;;;;;;5041110;28;20029;-75
2022/03/07 11:04:41;;;;;;;8.32;6.25;;;6.10;54.20;;;;;;5034108;28;20021;-76
2022/03/07 11:07:08;;;;;;;7.93;6.07;;;6.10;54.20;;;;;;5042426;28;20089;-75
2022/03/07 11:09:34;;;;;;;7.80;5.30;;;6.20;54.40;;;;;;5044282;28;20414;-76
2022/03/07 11:12:01;;;;;;;8.23;6.10;;;6.30;54.30;;;;;;5036823;28;20021;-75
2022/03/07 11:14:27;;;;;;;9.02;6.55;;;6.30;54.00;;;;;;5040264;28;20391;-75
2022/03/07 11:16:56;;;;;;;6.70;5.80;;;6.20;54.10;;;;;;5040243;28;20025;-75
2022/03/07 11:19:26;;;;;;;9.13;6.07;;;6.30;54.50;;;;;;5039109;28;20025;-75
2022/03/07 11:21:54;;;;;;;7.60;5.55;;;6.40;54.90;;;;;;5036130;28;20463;-76
2022/03/07 11:24:25;;;;;;;8.80;6.80;;;6.40;54.80;;;;;;5038781;28;20476;-75
2022/03/07 11:26:53;;;;;;;9.38;7.18;;;6.50;54.90;;;;;;5041680;28;20278;-75
2022/03/07 11:29:19;;;;;;;7.07;5.70;;;6.50;54.80;;;;;;5041471;28;20056;-75
2022/03/07 11:31:46;;;;;;;9.43;6.10;;;6.70;55.10;;;;;;5035996;28;20495;-75
2022/03/07 11:34:12;;;;;;;8.68;6.60;;;6.70;55.00;;;;;;5039422;28;20033;-75
2022/03/07 11:36:44;;;;;;;6.57;5.57;;;6.80;55.00;;;;;;5042714;28;20056;-76
2022/03/07 11:39:10;;;;;;;8.63;6.32;;;6.90;54.70;;;;;;5042674;28;20484;-75
2022/03/07 11:41:37;;;;;;;9.02;6.30;;;7.00;54.70;;;;;;5042016;28;20028;-75
2022/03/07 11:44:04;;;;;;;8.05;6.28;;;7.00;54.40;;;;;;5043631;28;20052;-75
2022/03/07 11:46:36;;;;;;;9.07;6.68;;;6.90;54.20;;;;;;5044286;28;20028;-76
2022/03/07 11:49:04;;;;;;;8.70;6.80;;;6.80;54.30;;;;;;5047531;28;20073;-75
2022/03/07 11:51:32;;;;;;;8.52;5.97;;;6.70;54.90;;;;;;5047036;28;20031;-75
2022/03/07 11:53:58;;;;;;;8.93;6.53;;;6.70;55.40;;;;;;5043141;28;20028;-76
2022/03/07 11:56:25;;;;;;;9.95;6.90;;;6.80;55.60;;;;;;5040064;28;20029;-75
2022/03/07 11:58:54;;;;;;;7.25;6.10;;;6.80;55.60;;;;;;5042180;28;20103;-75
2022/03/07 12:01:21;;;;;;;8.25;6.43;;;6.80;55.60;;;;;;5047400;28;20082;-76
2022/03/07 12:03:47;;;;;;;9.25;7.10;;;7.00;55.70;;;;;;5048747;28;20036;-76
2022/03/07 12:06:15;;;;;;;9.93;7.47;;;7.10;55.50;;;;;;5049598;28;20160;-76
2022/03/07 12:08:48;;;;;;;9.55;7.70;;;7.20;55.30;;;;;;5044124;28;20017;-76
2022/03/07 12:11:34;;;;;;;13.43;9.18;;;7.30;55.50;;;;;;5042373;28;20106;-76
2022/03/07 12:14:06;;;;;;;11.85;8.18;;;7.40;55.20;;;;;;5045798;28;20331;-75
2022/03/07 12:16:38;;;;;;;11.02;7.70;;;7.40;55.10;;;;;;5038914;28;20033;-76
2022/03/07 12:19:11;;;;;;;10.75;7.70;;;7.30;55.40;;;;;;5046634;28;20013;-75
2022/03/07 12:21:38;;;;;;;10.45;7.03;;;7.30;55.50;;;;;;5042857;28;20037;-75
2022/03/07 12:24:06;;;;;;;10.25;8.40;;;7.30;55.70;;;;;;5045820;28;20025;-75
2022/03/07 12:26:31;;;;;;;10.10;8.45;;;7.20;55.80;;;;;;5040626;28;20025;-77
2022/03/07 12:28:57;;;;;;;10.05;7.95;;;7.00;55.60;;;;;;5049352;28;20040;-76
2022/03/07 12:31:22;;;;;;;8.85;7.82;;;7.00;56.20;;;;;;5040310;28;20086;-76
2022/03/07 12:33:48;;;;;;;9.65;7.15;;;7.10;56.30;;;;;;5044692;28;20024;-76
2022/03/07 12:36:15;;;;;;;11.68;7.45;;;7.00;55.70;;;;;;5042688;28;20029;-77
2022/03/07 12:38:55;;;;;;;8.10;6.40;;;7.00;56.00;;;;;;5040914;28;20024;-77
2022/03/07 12:41:36;;;;;;;6.57;5.40;;;7.10;56.00;;;;;;5044358;28;20853;-75
2022/03/07 12:44:04;;;;;;;8.63;6.60;;;7.30;56.00;;;;;;5064614;28;20020;-75
2022/03/07 12:46:30;;;;;;;8.93;6.38;;;7.50;55.00;;;;;;5036615;28;20123;-74
2022/03/07 12:48:57;;;;;;;7.90;5.68;;;7.50;54.50;;;;;;5041828;28;20434;-75
2022/03/07 12:51:24;;;;;;;8.25;5.85;;;7.60;53.80;;;;;;5044603;28;20031;-76
2022/03/07 12:54:08;;;;;;;7.68;6.15;;;7.60;53.90;;;;;;5047746;28;20383;-77
2022/03/07 12:56:44;;;;;;;7.53;6.22;;;7.80;54.30;;;;;;5046280;28;20029;-77